sensor_id;sensor_type;location;lat;lon;timestamp;pressure;altitude;pressure_sealevel;temperature;humidity
77737;BME280;66903;59.926;30.404;2023-11-21T00:03:26;101749.88;;;23.13;27.90
77737;BME280;66903;59.926;30.404;2023-11-21T00:08:38;101748.75;;;23.14;27.77
77737;BME280;66903;59.926;30.404;2023-11-21T00:13:49;101739.91;;;23.16;27.55
77737;BME280;66903;59.926;30.404;2023-11-21T00:19:00;101749.91;;;23.18;27.47
77737;BME280;66903;59.926;30.404;2023-11-21T00:24:12;101745.09;;;23.19;27.60
77737;BME280;66903;59.926;30.404;2023-11-21T00:29:23;101749.78;;;23.35;27.65
77737;BME280;66903;59.926;30.404;2023-11-21T00:34:34;101754.84;;;23.28;27.77
77737;BME280;66903;59.926;30.404;2023-11-21T00:39:45;101749.09;;;23.23;27.81
77737;BME280;66903;59.926;30.404;2023-11-21T00:44:56;101753.66;;;23.24;27.76
77737;BME280;66903;59.926;30.404;2023-11-21T00:50:07;101762.22;;;23.24;27.92
77737;BME280;66903;59.926;30.404;2023-11-21T00:55:18;101762.22;;;23.24;28.02
77737;BME280;66903;59.926;30.404;2023-11-21T01:00:29;101773.03;;;23.22;27.60
77737;BME280;66903;59.926;30.404;2023-11-21T01:05:40;101785.63;;;23.26;27.80
77737;BME280;66903;59.926;30.404;2023-11-21T01:10:51;101794.16;;;23.26;27.43
77737;BME280;66903;59.926;30.404;2023-11-21T01:16:02;101783.59;;;23.26;27.32
77737;BME280;66903;59.926;30.404;2023-11-21T01:21:12;101782.75;;;23.26;27.87
77737;BME280;66903;59.926;30.404;2023-11-21T01:26:23;101787.31;;;23.27;27.99
77737;BME280;66903;59.926;30.404;2023-11-21T01:31:34;101793.88;;;23.27;27.41
77737;BME280;66903;59.926;30.404;2023-11-21T01:36:46;101793.88;;;23.27;27.48
77737;BME280;66903;59.926;30.404;2023-11-21T01:41:57;101790.44;;;23.25;27.36
77737;BME280;66903;59.926;30.404;2023-11-21T01:47:11;101784.44;;;23.22;27.07
77737;BME280;66903;59.926;30.404;2023-11-21T01:52:23;101785.88;;;23.24;27.36
77737;BME280;66903;59.926;30.404;2023-11-21T01:57:36;101798.41;;;23.23;27.40
77737;BME280;66903;59.926;30.404;2023-11-21T02:02:48;101803.25;;;23.23;27.47
77737;BME280;66903;59.926;30.404;2023-11-21T02:07:59;101790.44;;;23.25;27.48
77737;BME280;66903;59.926;30.404;2023-11-21T02:13:11;101803.84;;;23.25;27.56
77737;BME280;66903;59.926;30.404;2023-11-21T02:18:22;101799.00;;;23.25;27.50
77737;BME280;66903;59.926;30.404;2023-11-21T02:23:32;101805.56;;;23.26;27.48
77737;BME280;66903;59.926;30.404;2023-11-21T02:28:44;101811.88;;;23.28;26.97
77737;BME280;66903;59.926;30.404;2023-11-21T02:33:54;101819.31;;;23.29;27.02
77737;BME280;66903;59.926;30.404;2023-11-21T02:39:05;101814.72;;;23.28;26.97
77737;BME280;66903;59.926;30.404;2023-11-21T02:44:18;101811.88;;;23.28;27.17
77737;BME280;66903;59.926;30.404;2023-11-21T02:49:29;101811.00;;;23.27;27.21
77737;BME280;66903;59.926;30.404;2023-11-21T02:54:40;101804.19;;;23.28;27.03
77737;BME280;66903;59.926;30.404;2023-11-21T02:59:52;101805.91;;;23.29;27.00
77737;BME280;66903;59.926;30.404;2023-11-21T03:05:03;101818.44;;;23.28;27.11
77737;BME280;66903;59.926;30.404;2023-11-21T03:10:15;101826.72;;;23.30;27.10
77737;BME280;66903;59.926;30.404;2023-11-21T03:15:26;101837.28;;;23.29;27.04
77737;BME280;66903;59.926;30.404;2023-11-21T03:20:37;101848.69;;;23.29;27.72
77737;BME280;66903;59.926;30.404;2023-11-21T03:25:48;101844.97;;;23.29;27.51
77737;BME280;66903;59.926;30.404;2023-11-21T03:30:59;101846.06;;;23.28;27.25
77737;BME280;66903;59.926;30.404;2023-11-21T03:36:10;101859.47;;;23.27;27.12
77737;BME280;66903;59.926;30.404;2023-11-21T03:41:21;101850.03;;;23.27;27.43
77737;BME280;66903;59.926;30.404;2023-11-21T03:46:31;101847.47;;;23.25;27.48
77737;BME280;66903;59.926;30.404;2023-11-21T03:51:42;101849.44;;;23.25;27.24
77737;BME280;66903;59.926;30.404;2023-11-21T03:56:53;101848.59;;;23.24;27.09
77737;BME280;66903;59.926;30.404;2023-11-21T04:02:04;101856.00;;;23.25;27.56
77737;BME280;66903;59.926;30.404;2023-11-21T04:07:14;101860.56;;;23.26;27.25
77737;BME280;66903;59.926;30.404;2023-11-21T04:12:25;101869.13;;;23.26;27.41
77737;BME280;66903;59.926;30.404;2023-11-21T04:17:36;101879.06;;;23.19;27.62
77737;BME280;66903;59.926;30.404;2023-11-21T04:22:47;101884.44;;;23.15;28.00
77737;BME280;66903;59.926;30.404;2023-11-21T04:27:57;101898.09;;;23.13;27.54
77737;BME280;66903;59.926;30.404;2023-11-21T04:33:08;101913.53;;;23.17;28.00
77737;BME280;66903;59.926;30.404;2023-11-21T04:38:19;101926.09;;;23.21;28.29
77737;BME280;66903;59.926;30.404;2023-11-21T04:43:30;101927.28;;;23.25;28.36
77737;BME280;66903;59.926;30.404;2023-11-21T04:48:41;101919.97;;;23.29;28.31
77737;BME280;66903;59.926;30.404;2023-11-21T04:53:51;101926.56;;;23.35;27.98
77737;BME280;66903;59.926;30.404;2023-11-21T04:59:02;101918.56;;;23.37;28.43
77737;BME280;66903;59.926;30.404;2023-11-21T05:04:13;101929.47;;;23.40;28.15
77737;BME280;66903;59.926;30.404;2023-11-21T05:09:25;101925.16;;;23.37;27.86
77737;BME280;66903;59.926;30.404;2023-11-21T05:14:36;101932.81;;;23.37;27.92
77737;BME280;66903;59.926;30.404;2023-11-21T05:19:46;101935.63;;;23.32;27.57
77737;BME280;66903;59.926;30.404;2023-11-21T05:24:58;101940.75;;;23.30;27.47
77737;BME280;66903;59.926;30.404;2023-11-21T05:30:10;101956.94;;;23.24;27.59
77737;BME280;66903;59.926;30.404;2023-11-21T05:35:23;101950.94;;;23.21;27.50
77737;BME280;66903;59.926;30.404;2023-11-21T05:40:33;101961.72;;;23.19;27.30
77737;BME280;66903;59.926;30.404;2023-11-21T05:45:44;101968.81;;;23.16;27.27
77737;BME280;66903;59.926;30.404;2023-11-21T05:50:55;101974.19;;;23.13;27.27
77737;BME280;66903;59.926;30.404;2023-11-21T05:56:06;101985.06;;;23.16;26.83
77737;BME280;66903;59.926;30.404;2023-11-21T06:01:17;101997.69;;;23.25;26.73
77737;BME280;66903;59.926;30.404;2023-11-21T06:06:28;102006.41;;;23.35;26.47
77737;BME280;66903;59.926;30.404;2023-11-21T06:11:39;102013.59;;;23.42;26.18
77737;BME280;66903;59.926;30.404;2023-11-21T06:16:49;102015.66;;;23.47;26.11
77737;BME280;66903;59.926;30.404;2023-11-21T06:22:01;102020.25;;;23.53;26.17
77737;BME280;66903;59.926;30.404;2023-11-21T06:27:12;102033.72;;;23.57;26.07
77737;BME280;66903;59.926;30.404;2023-11-21T06:32:23;102036.00;;;23.60;26.20
77737;BME280;66903;59.926;30.404;2023-11-21T06:37:33;102048.63;;;23.64;26.11
77737;BME280;66903;59.926;30.404;2023-11-21T06:42:44;102043.50;;;23.66;25.76
77737;BME280;66903;59.926;30.404;2023-11-21T06:47:55;102053.50;;;23.69;25.82
77737;BME280;66903;59.926;30.404;2023-11-21T06:53:06;102068.34;;;23.71;25.98
77737;BME280;66903;59.926;30.404;2023-11-21T06:58:18;102067.78;;;23.74;26.07
77737;BME280;66903;59.926;30.404;2023-11-21T07:03:28;102070.97;;;23.77;25.93
77737;BME280;66903;59.926;30.404;2023-11-21T07:08:39;102070.69;;;23.79;25.97
77737;BME280;66903;59.926;30.404;2023-11-21T07:13:50;102070.78;;;23.84;25.73
77737;BME280;66903;59.926;30.404;2023-11-21T07:19:06;102063.63;;;23.86;25.96
77737;BME280;66903;59.926;30.404;2023-11-21T07:24:18;102073.22;;;23.75;25.55
77737;BME280;66903;59.926;30.404;2023-11-21T07:29:28;102081.97;;;23.64;25.56
77737;BME280;66903;59.926;30.404;2023-11-21T07:34:42;102086.44;;;23.55;25.67
77737;BME280;66903;59.926;30.404;2023-11-21T07:39:52;102095.56;;;23.52;25.62
77737;BME280;66903;59.926;30.404;2023-11-21T07:45:07;102101.84;;;23.54;25.88
77737;BME280;66903;59.926;30.404;2023-11-21T07:50:18;102110.72;;;23.57;25.72
77737;BME280;66903;59.926;30.404;2023-11-21T07:55:28;102103.00;;;23.58;25.29
77737;BME280;66903;59.926;30.404;2023-11-21T08:00:42;102120.72;;;23.60;25.33
77737;BME280;66903;59.926;30.404;2023-11-21T08:05:53;102100.75;;;23.60;25.68
77737;BME280;66903;59.926;30.404;2023-11-21T08:11:05;102111.06;;;23.61;25.27
77737;BME280;66903;59.926;30.404;2023-11-21T08:16:16;102103.00;;;23.58;25.37
77737;BME280;66903;59.926;30.404;2023-11-21T08:21:27;102102.69;;;23.54;25.44
77737;BME280;66903;59.926;30.404;2023-11-21T08:26:39;102094.13;;;23.54;25.53
77737;BME280;66903;59.926;30.404;2023-11-21T08:31:50;102090.97;;;23.51;25.30
77737;BME280;66903;59.926;30.404;2023-11-21T08:37:01;102102.91;;;23.48;25.22
77737;BME280;66903;59.926;30.404;2023-11-21T08:42:11;102095.81;;;23.50;25.01
77737;BME280;66903;59.926;30.404;2023-11-21T08:47:22;102101.25;;;23.52;25.04
77737;BME280;66903;59.926;30.404;2023-11-21T08:52:34;102097.84;;;23.55;25.61
77737;BME280;66903;59.926;30.404;2023-11-21T08:57:47;102098.22;;;23.63;25.24
77737;BME280;66903;59.926;30.404;2023-11-21T09:02:58;102099.69;;;23.66;25.00
77737;BME280;66903;59.926;30.404;2023-11-21T09:08:09;102111.16;;;23.71;24.92
77737;BME280;66903;59.926;30.404;2023-11-21T09:13:19;102110.59;;;23.74;25.29
77737;BME280;66903;59.926;30.404;2023-11-21T09:18:30;102107.75;;;23.74;25.29
77737;BME280;66903;59.926;30.404;2023-11-21T09:23:43;102099.72;;;23.71;25.02
77737;BME280;66903;59.926;30.404;2023-11-21T09:28:55;102099.41;;;23.67;25.54
77737;BME280;66903;59.926;30.404;2023-11-21T09:34:07;102097.13;;;23.64;25.49
77737;BME280;66903;59.926;30.404;2023-11-21T09:39:17;102099.38;;;23.62;25.23
77737;BME280;66903;59.926;30.404;2023-11-21T09:44:35;102105.41;;;23.66;25.17
77737;BME280;66903;59.926;30.404;2023-11-21T09:49:49;102108.84;;;23.68;25.78
77737;BME280;66903;59.926;30.404;2023-11-21T09:55:01;102112.84;;;23.72;26.00
77737;BME280;66903;59.926;30.404;2023-11-21T10:00:15;102118.31;;;23.73;25.97
77737;BME280;66903;59.926;30.404;2023-11-21T10:05:28;102114.28;;;23.69;25.62
77737;BME280;66903;59.926;30.404;2023-11-21T10:10:43;102133.06;;;23.65;26.07
77737;BME280;66903;59.926;30.404;2023-11-21T10:16:01;102119.59;;;23.61;26.07
77737;BME280;66903;59.926;30.404;2023-11-21T10:21:15;102131.03;;;23.61;26.61
77737;BME280;66903;59.926;30.404;2023-11-21T10:26:28;102117.09;;;23.64;26.42
77737;BME280;66903;59.926;30.404;2023-11-21T10:31:39;102125.91;;;23.63;26.58
77737;BME280;66903;59.926;30.404;2023-11-21T10:36:50;102131.06;;;23.66;26.69
77737;BME280;66903;59.926;30.404;2023-11-21T10:42:00;102131.84;;;23.61;26.55
77737;BME280;66903;59.926;30.404;2023-11-21T10:47:11;102131.72;;;23.46;26.59
77737;BME280;66903;59.926;30.404;2023-11-21T10:52:26;102135.38;;;23.42;26.12
77737;BME280;66903;59.926;30.404;2023-11-21T10:57:37;102140.47;;;23.40;26.55
77737;BME280;66903;59.926;30.404;2023-11-21T11:02:51;102154.94;;;23.60;26.46
77737;BME280;66903;59.926;30.404;2023-11-21T11:08:05;102145.47;;;23.81;26.50
77737;BME280;66903;59.926;30.404;2023-11-21T11:13:16;102143.38;;;23.98;26.96
77737;BME280;66903;59.926;30.404;2023-11-21T11:18:30;102141.28;;;24.15;26.67
77737;BME280;66903;59.926;30.404;2023-11-21T11:23:53;102140.22;;;24.26;26.53
77737;BME280;66903;59.926;30.404;2023-11-21T11:34:55;102129.78;;;24.42;26.48
77737;BME280;66903;59.926;30.404;2023-11-21T11:40:13;102140.97;;;24.48;26.28
77737;BME280;66903;59.926;30.404;2023-11-21T11:45:26;102136.75;;;24.56;26.58
77737;BME280;66903;59.926;30.404;2023-11-21T11:51:10;102141.94;;;24.64;26.63
77737;BME280;66903;59.926;30.404;2023-11-21T11:56:29;102146.59;;;24.70;26.29
77737;BME280;66903;59.926;30.404;2023-11-21T12:01:46;102143.47;;;24.71;26.52
77737;BME280;66903;59.926;30.404;2023-11-21T12:07:02;102137.41;;;24.68;26.44
77737;BME280;66903;59.926;30.404;2023-11-21T12:12:13;102141.66;;;24.65;26.64
77737;BME280;66903;59.926;30.404;2023-11-21T12:17:27;102148.84;;;24.68;26.13
77737;BME280;66903;59.926;30.404;2023-11-21T12:22:38;102157.47;;;24.73;26.60
77737;BME280;66903;59.926;30.404;2023-11-21T12:27:52;102157.19;;;24.74;26.61
77737;BME280;66903;59.926;30.404;2023-11-21T12:33:04;102163.19;;;24.73;26.26
77737;BME280;66903;59.926;30.404;2023-11-21T12:38:17;102172.03;;;24.71;26.56
77737;BME280;66903;59.926;30.404;2023-11-21T12:43:30;102174.91;;;24.71;26.16
77737;BME280;66903;59.926;30.404;2023-11-21T12:48:41;102171.16;;;24.71;26.39
77737;BME280;66903;59.926;30.404;2023-11-21T12:53:55;102172.88;;;24.72;26.39
77737;BME280;66903;59.926;30.404;2023-11-21T12:59:06;102179.13;;;24.69;26.43
77737;BME280;66903;59.926;30.404;2023-11-21T13:04:17;102175.34;;;24.63;26.42
77737;BME280;66903;59.926;30.404;2023-11-21T13:09:29;102175.03;;;24.60;26.10
77737;BME280;66903;59.926;30.404;2023-11-21T13:14:40;102182.47;;;24.56;26.08
77737;BME280;66903;59.926;30.404;2023-11-21T13:19:50;102181.56;;;24.50;26.01
77737;BME280;66903;59.926;30.404;2023-11-21T13:25:01;102182.09;;;24.47;26.32
77737;BME280;66903;59.926;30.404;2023-11-21T13:30:17;102188.34;;;24.44;26.11
77737;BME280;66903;59.926;30.404;2023-11-21T13:35:34;102194.63;;;24.41;26.04
77737;BME280;66903;59.926;30.404;2023-11-21T13:40:50;102191.50;;;24.43;25.93
77737;BME280;66903;59.926;30.404;2023-11-21T13:46:03;102195.22;;;24.43;25.81
77737;BME280;66903;59.926;30.404;2023-11-21T13:51:23;102204.38;;;24.45;26.09
77737;BME280;66903;59.926;30.404;2023-11-21T13:56:49;102207.78;;;24.47;25.90
77737;BME280;66903;59.926;30.404;2023-11-21T14:02:01;102211.53;;;24.48;26.02
77737;BME280;66903;59.926;30.404;2023-11-21T14:07:27;102219.22;;;24.47;25.85
77737;BME280;66903;59.926;30.404;2023-11-21T14:12:46;102225.50;;;24.44;25.90
77737;BME280;66903;59.926;30.404;2023-11-21T14:17:57;102223.50;;;24.45;26.28
77737;BME280;66903;59.926;30.404;2023-11-21T14:23:09;102231.47;;;24.43;25.92
77737;BME280;66903;59.926;30.404;2023-11-21T14:28:20;102237.75;;;24.40;25.84
77737;BME280;66903;59.926;30.404;2023-11-21T14:33:31;102232.31;;;24.38;25.87
77737;BME280;66903;59.926;30.404;2023-11-21T14:38:42;102234.28;;;24.38;26.10
77737;BME280;66903;59.926;30.404;2023-11-21T14:43:56;102239.13;;;24.37;25.68
77737;BME280;66903;59.926;30.404;2023-11-21T14:49:07;102235.69;;;24.35;25.75
77737;BME280;66903;59.926;30.404;2023-11-21T14:54:30;102252.56;;;24.37;25.63
77737;BME280;66903;59.926;30.404;2023-11-21T14:59:50;102247.72;;;24.37;25.42
77737;BME280;66903;59.926;30.404;2023-11-21T15:05:02;102247.44;;;24.39;26.20
77737;BME280;66903;59.926;30.404;2023-11-21T15:10:14;102238.91;;;24.44;26.47
77737;BME280;66903;59.926;30.404;2023-11-21T15:15:30;102245.25;;;24.51;27.18
77737;BME280;66903;59.926;30.404;2023-11-21T15:20:44;102249.56;;;24.53;26.41
77737;BME280;66903;59.926;30.404;2023-11-21T15:25:55;102253.31;;;24.54;26.96
77737;BME280;66903;59.926;30.404;2023-11-21T15:31:06;102255.59;;;24.57;26.93
77737;BME280;66903;59.926;30.404;2023-11-21T15:36:19;102261.31;;;24.57;26.78
77737;BME280;66903;59.926;30.404;2023-11-21T15:41:30;102264.72;;;24.54;26.73
77737;BME280;66903;59.926;30.404;2023-11-21T15:46:40;102269.81;;;24.47;26.60
77737;BME280;66903;59.926;30.404;2023-11-21T15:51:52;102271.47;;;24.43;26.64
77737;BME280;66903;59.926;30.404;2023-11-21T15:57:03;102271.16;;;24.39;26.69
77737;BME280;66903;59.926;30.404;2023-11-21T16:02:14;102276.28;;;24.37;26.58
77737;BME280;66903;59.926;30.404;2023-11-21T16:07:26;102277.13;;;24.38;26.76
77737;BME280;66903;59.926;30.404;2023-11-21T16:12:38;102283.16;;;24.41;27.14
77737;BME280;66903;59.926;30.404;2023-11-21T16:17:50;102278.06;;;24.43;26.60
77737;BME280;66903;59.926;30.404;2023-11-21T16:23:01;102274.06;;;24.44;26.75
77737;BME280;66903;59.926;30.404;2023-11-21T16:28:12;102270.91;;;24.46;26.40
77737;BME280;66903;59.926;30.404;2023-11-21T16:33:24;102271.19;;;24.44;26.36
77737;BME280;66903;59.926;30.404;2023-11-21T16:38:34;102276.91;;;24.44;26.36
77737;BME280;66903;59.926;30.404;2023-11-21T16:43:45;102276.91;;;24.44;26.64
77737;BME280;66903;59.926;30.404;2023-11-21T16:48:56;102276.31;;;24.42;26.30
77737;BME280;66903;59.926;30.404;2023-11-21T16:54:07;102276.91;;;24.44;26.26
77737;BME280;66903;59.926;30.404;2023-11-21T16:59:19;102280.63;;;24.45;26.42
77737;BME280;66903;59.926;30.404;2023-11-21T17:04:30;102286.34;;;24.45;26.24
77737;BME280;66903;59.926;30.404;2023-11-21T17:09:42;102283.78;;;24.43;25.92
77737;BME280;66903;59.926;30.404;2023-11-21T17:14:53;102279.16;;;24.42;26.08
77737;BME280;66903;59.926;30.404;2023-11-21T17:20:05;102287.41;;;24.39;26.02
77737;BME280;66903;59.926;30.404;2023-11-21T17:25:19;102284.25;;;24.35;25.99
77737;BME280;66903;59.926;30.404;2023-11-21T17:30:30;102294.22;;;24.33;25.87
77737;BME280;66903;59.926;30.404;2023-11-21T17:35:42;102278.75;;;24.29;25.73
77737;BME280;66903;59.926;30.404;2023-11-21T17:40:53;102280.53;;;24.35;26.08
77737;BME280;66903;59.926;30.404;2023-11-21T17:46:04;102291.75;;;24.41;26.00
77737;BME280;66903;59.926;30.404;2023-11-21T17:51:15;102288.06;;;24.46;25.90
77737;BME280;66903;59.926;30.404;2023-11-21T17:56:26;102293.50;;;24.47;25.94
77737;BME280;66903;59.926;30.404;2023-11-21T18:01:38;102294.09;;;24.49;25.97
77737;BME280;66903;59.926;30.404;2023-11-21T18:06:49;102293.25;;;24.49;25.73
77737;BME280;66903;59.926;30.404;2023-11-21T18:12:00;102297.22;;;24.48;26.28
77737;BME280;66903;59.926;30.404;2023-11-21T18:17:15;102287.78;;;24.47;26.21
77737;BME280;66903;59.926;30.404;2023-11-21T18:22:27;102288.94;;;24.46;26.20
77737;BME280;66903;59.926;30.404;2023-11-21T18:27:38;102304.38;;;24.45;26.09
77737;BME280;66903;59.926;30.404;2023-11-21T18:32:49;102302.63;;;24.44;26.20
77737;BME280;66903;59.926;30.404;2023-11-21T18:38:00;102311.19;;;24.44;25.76
77737;BME280;66903;59.926;30.404;2023-11-21T18:43:10;102313.72;;;24.41;25.87
77737;BME280;66903;59.926;30.404;2023-11-21T18:48:22;102312.28;;;24.38;25.72
77737;BME280;66903;59.926;30.404;2023-11-21T18:53:33;102310.81;;;24.36;26.24
77737;BME280;66903;59.926;30.404;2023-11-21T18:58:45;102322.56;;;24.39;28.03
77737;BME280;66903;59.926;30.404;2023-11-21T19:03:56;102328.06;;;24.46;28.80
77737;BME280;66903;59.926;30.404;2023-11-21T19:09:11;102337.00;;;24.54;28.52
77737;BME280;66903;59.926;30.404;2023-11-21T19:14:22;102351.56;;;24.53;27.75
77737;BME280;66903;59.926;30.404;2023-11-21T19:19:33;102338.88;;;24.44;27.62
77737;BME280;66903;59.926;30.404;2023-11-21T19:24:44;102336.84;;;24.39;27.30
77737;BME280;66903;59.926;30.404;2023-11-21T19:29:55;102334.88;;;24.40;26.67
77737;BME280;66903;59.926;30.404;2023-11-21T19:35:06;102335.97;;;24.39;26.28
77737;BME280;66903;59.926;30.404;2023-11-21T19:40:18;102347.41;;;24.39;26.18
77737;BME280;66903;59.926;30.404;2023-11-21T19:45:33;102336.34;;;24.47;27.56
77737;BME280;66903;59.926;30.404;2023-11-21T19:50:45;102358.75;;;24.55;27.73
77737;BME280;66903;59.926;30.404;2023-11-21T19:55:55;102372.19;;;24.60;27.49
77737;BME280;66903;59.926;30.404;2023-11-21T20:01:07;102369.66;;;24.63;27.38
77737;BME280;66903;59.926;30.404;2023-11-21T20:06:17;102366.00;;;24.68;27.39
77737;BME280;66903;59.926;30.404;2023-11-21T20:11:30;102363.50;;;24.71;27.27
77737;BME280;66903;59.926;30.404;2023-11-21T20:16:42;102374.66;;;24.73;27.64
77737;BME280;66903;59.926;30.404;2023-11-21T20:21:53;102378.13;;;24.75;27.57
77737;BME280;66903;59.926;30.404;2023-11-21T20:27:05;102377.84;;;24.76;27.38
77737;BME280;66903;59.926;30.404;2023-11-21T20:32:16;102375.72;;;24.93;27.21
77737;BME280;66903;59.926;30.404;2023-11-21T20:37:27;102378.53;;;24.88;27.10
77737;BME280;66903;59.926;30.404;2023-11-21T20:42:38;102375.66;;;24.88;27.36
77737;BME280;66903;59.926;30.404;2023-11-21T20:47:52;102381.97;;;24.90;27.16
77737;BME280;66903;59.926;30.404;2023-11-21T20:53:03;102381.97;;;24.90;27.36
77737;BME280;66903;59.926;30.404;2023-11-21T20:58:18;102373.41;;;24.90;26.86
77737;BME280;66903;59.926;30.404;2023-11-21T21:03:29;102374.16;;;24.81;27.25
77737;BME280;66903;59.926;30.404;2023-11-21T21:08:39;102370.84;;;24.67;27.47
77737;BME280;66903;59.926;30.404;2023-11-21T21:13:51;102371.28;;;24.54;27.24
77737;BME280;66903;59.926;30.404;2023-11-21T21:19:03;102362.00;;;24.42;27.06
77737;BME280;66903;59.926;30.404;2023-11-21T21:24:14;102371.03;;;24.29;27.57
77737;BME280;66903;59.926;30.404;2023-11-21T21:29:25;102384.00;;;23.22;23.58
77737;BME280;66903;59.926;30.404;2023-11-21T21:34:36;102385.31;;;21.28;27.89
77737;BME280;66903;59.926;30.404;2023-11-21T21:39:52;102378.84;;;21.67;28.23
77737;BME280;66903;59.926;30.404;2023-11-21T21:45:06;102376.13;;;22.23;27.56
77737;BME280;66903;59.926;30.404;2023-11-21T21:50:17;102376.56;;;22.71;26.98
77737;BME280;66903;59.926;30.404;2023-11-21T21:55:29;102375.44;;;23.05;26.86
77737;BME280;66903;59.926;30.404;2023-11-21T22:00:41;102385.56;;;23.30;26.60
77737;BME280;66903;59.926;30.404;2023-11-21T22:05:52;102389.78;;;23.44;26.40
77737;BME280;66903;59.926;30.404;2023-11-21T22:11:03;102382.84;;;23.56;26.58
77737;BME280;66903;59.926;30.404;2023-11-21T22:16:15;102387.25;;;23.64;26.10
77737;BME280;66903;59.926;30.404;2023-11-21T22:21:27;102383.34;;;23.70;26.34
77737;BME280;66903;59.926;30.404;2023-11-21T22:26:38;102381.66;;;23.74;26.34
77737;BME280;66903;59.926;30.404;2023-11-21T22:31:49;102379.16;;;23.77;26.11
77737;BME280;66903;59.926;30.404;2023-11-21T22:37:00;102385.72;;;23.78;25.97
77737;BME280;66903;59.926;30.404;2023-11-21T22:42:11;102376.03;;;23.79;26.44
77737;BME280;66903;59.926;30.404;2023-11-21T22:47:22;102373.19;;;23.79;26.07
77737;BME280;66903;59.926;30.404;2023-11-21T22:52:33;102386.06;;;23.81;25.86
77737;BME280;66903;59.926;30.404;2023-11-21T22:57:44;102377.16;;;23.78;26.00
77737;BME280;66903;59.926;30.404;2023-11-21T23:02:56;102382.34;;;23.81;26.10
77737;BME280;66903;59.926;30.404;2023-11-21T23:08:07;102380.09;;;23.83;26.16
77737;BME280;66903;59.926;30.404;2023-11-21T23:13:19;102372.66;;;23.82;25.89
77737;BME280;66903;59.926;30.404;2023-11-21T23:18:30;102378.97;;;23.84;26.14
77737;BME280;66903;59.926;30.404;2023-11-21T23:23:40;102376.97;;;23.84;25.62
77737;BME280;66903;59.926;30.404;2023-11-21T23:28:51;102372.13;;;23.85;25.81
77737;BME280;66903;59.926;30.404;2023-11-21T23:34:02;102384.41;;;23.85;25.74
77737;BME280;66903;59.926;30.404;2023-11-21T23:39:14;102388.97;;;23.86;25.75
77737;BME280;66903;59.926;30.404;2023-11-21T23:44:25;102385.03;;;23.87;25.60
77737;BME280;66903;59.926;30.404;2023-11-21T23:49:38;102385.25;;;23.86;25.76
77737;BME280;66903;59.926;30.404;2023-11-21T23:54:49;102389.59;;;23.88;25.92
77737;BME280;66903;59.926;30.404;2023-11-21T23:59:59;102387.00;;;23.87;26.15
